Time,TemperatureF,DewpointF,PressureIn,WindDirection,WindDirectionDegrees,WindSpeedMPH,WindSpeedGustMPH,Humidity,HourlyPrecipIn,Conditions,Clouds,dailyrainin,SoftwareType,DateUTC
2013-03-16 00:10:00,-999.0,-99.9,29.80,North,-999,-999.0,-999.0,-999,0.00,,,0.00,weatherlink.com 1.10,2013-03-16 04:10:00,
2013-03-16 00:25:00,-999.0,-99.9,29.79,North,-999,-999.0,-999.0,-999,0.00,,,0.00,weatherlink.com 1.10,2013-03-16 04:25:00,
2013-03-16 00:40:00,-999.0,-99.9,29.79,North,-999,-999.0,-999.0,-999,0.00,,,0.00,weatherlink.com 1.10,2013-03-16 04:40:00,
2013-03-16 00:55:00,-999.0,-99.9,29.78,North,-999,-999.0,-999.0,-999,0.00,,,0.00,weatherlink.com 1.10,2013-03-16 04:55:00,
2013-03-16 01:10:00,-999.0,-99.9,29.78,North,-999,-999.0,-999.0,-999,0.00,,,0.00,weatherlink.com 1.10,2013-03-16 05:10:00,
2013-03-16 01:25:00,-999.0,-99.9,29.78,North,-999,-999.0,-999.0,-999,0.00,,,0.00,weatherlink.com 1.10,2013-03-16 05:25:00,
2013-03-16 01:41:00,-999.0,-99.9,29.77,North,-999,-999.0,-999.0,-999,0.00,,,0.00,weatherlink.com 1.10,2013-03-16 05:41:00,
2013-03-16 01:56:00,-999.0,-99.9,29.77,North,-999,-999.0,-999.0,-999,0.00,,,0.00,weatherlink.com 1.10,2013-03-16 05:56:00,
2013-03-16 02:11:00,-999.0,-99.9,29.76,North,-999,-999.0,-999.0,-999,0.00,,,0.00,weatherlink.com 1.10,2013-03-16 06:11:00,
2013-03-16 02:26:00,-999.0,-99.9,29.76,North,-999,-999.0,-999.0,-999,0.00,,,0.00,weatherlink.com 1.10,2013-03-16 06:26:00,
2013-03-16 03:26:00,-999.0,-99.9,29.74,North,-999,-999.0,-999.0,-999,0.00,,,0.00,weatherlink.com 1.10,2013-03-16 07:26:00,
2013-03-16 03:41:00,-999.0,-99.9,29.74,North,-999,-999.0,-999.0,-999,0.00,,,0.00,weatherlink.com 1.10,2013-03-16 07:41:00,
2013-03-16 03:56:00,-999.0,-99.9,29.73,North,-999,-999.0,-999.0,-999,0.00,,,0.00,weatherlink.com 1.10,2013-03-16 07:56:00,
2013-03-16 04:11:00,-999.0,-99.9,29.72,North,-999,-999.0,-999.0,-999,0.00,,,0.00,weatherlink.com 1.10,2013-03-16 08:11:00,
2013-03-16 04:26:00,-999.0,-99.9,29.72,North,-999,-999.0,-999.0,-999,0.00,,,0.00,weatherlink.com 1.10,2013-03-16 08:26:00,
2013-03-16 04:41:00,-999.0,-99.9,29.71,North,-999,-999.0,-999.0,-999,0.00,,,0.00,weatherlink.com 1.10,2013-03-16 08:41:00,
2013-03-16 04:57:00,-999.0,-99.9,29.70,North,-999,-999.0,-999.0,-999,0.00,,,0.00,weatherlink.com 1.10,2013-03-16 08:57:00,
2013-03-16 05:12:00,-999.0,-99.9,29.70,North,-999,-999.0,-999.0,-999,0.00,,,0.00,weatherlink.com 1.10,2013-03-16 09:12:00,
2013-03-16 05:27:00,-999.0,-99.9,29.70,North,-999,-999.0,-999.0,-999,0.00,,,0.00,weatherlink.com 1.10,2013-03-16 09:27:00,
2013-03-16 05:42:00,-999.0,-99.9,29.71,North,-999,-999.0,-999.0,-999,0.00,,,0.00,weatherlink.com 1.10,2013-03-16 09:42:00,
2013-03-16 05:57:00,-999.0,-99.9,29.70,North,-999,-999.0,-999.0,-999,0.00,,,0.00,weatherlink.com 1.10,2013-03-16 09:57:00,
2013-03-16 06:12:00,-999.0,-99.9,29.70,North,-999,-999.0,-999.0,-999,0.00,,,0.00,weatherlink.com 1.10,2013-03-16 10:12:00,
2013-03-16 06:27:00,-999.0,-99.9,29.70,North,-999,-999.0,-999.0,-999,0.00,,,0.00,weatherlink.com 1.10,2013-03-16 10:27:00,
2013-03-16 06:42:00,-999.0,-99.9,29.72,North,-999,-999.0,-999.0,-999,0.00,,,0.00,weatherlink.com 1.10,2013-03-16 10:42:00,
2013-03-16 06:57:00,-999.0,-99.9,29.72,North,-999,-999.0,-999.0,-999,0.00,,,0.00,weatherlink.com 1.10,2013-03-16 10:57:00,
2013-03-16 07:12:00,-999.0,-99.9,29.72,North,-999,-999.0,-999.0,-999,0.00,,,0.00,weatherlink.com 1.10,2013-03-16 11:12:00,
2013-03-16 07:27:00,-999.0,-99.9,29.72,North,-999,-999.0,-999.0,-999,0.00,,,0.00,weatherlink.com 1.10,2013-03-16 11:27:00,
2013-03-16 07:42:00,-999.0,-99.9,29.72,North,-999,-999.0,-999.0,-999,0.00,,,0.00,weatherlink.com 1.10,2013-03-16 11:42:00,
2013-03-16 07:57:00,-999.0,-99.9,29.72,North,-999,-999.0,-999.0,-999,0.00,,,0.00,weatherlink.com 1.10,2013-03-16 11:57:00,
2013-03-16 08:12:00,-999.0,-99.9,29.72,North,-999,-999.0,-999.0,-999,0.00,,,0.00,weatherlink.com 1.10,2013-03-16 12:12:00,
2013-03-16 08:28:00,44.7,40.0,29.72,West,274,0.0,2.0,82,0.00,,,0.00,weatherlink.com 1.10,2013-03-16 12:28:00,
2013-03-16 08:44:00,45.0,41.0,29.72,West,274,0.0,1.0,86,0.00,,,0.00,weatherlink.com 1.10,2013-03-16 12:44:00,
2013-03-16 08:58:00,45.4,41.0,29.72,West,275,0.0,1.0,85,0.00,,,0.00,weatherlink.com 1.10,2013-03-16 12:58:00,
2013-03-16 09:13:00,47.5,41.0,29.72,NW,323,0.0,1.0,77,0.00,,,0.00,weatherlink.com 1.10,2013-03-16 13:13:00,
2013-03-16 09:28:00,49.0,41.0,29.71,ENE,65,0.0,2.0,73,0.00,,,0.00,weatherlink.com 1.10,2013-03-16 13:28:00,
2013-03-16 09:43:00,51.2,42.0,29.70,East,96,0.0,3.0,71,0.00,,,0.00,weatherlink.com 1.10,2013-03-16 13:43:00,
2013-03-16 09:58:00,54.0,43.0,29.70,ENE,72,0.0,2.0,67,0.00,,,0.00,weatherlink.com 1.10,2013-03-16 13:58:00,
2013-03-16 10:13:00,54.9,44.0,29.69,East,98,3.0,5.0,67,0.00,,,0.00,weatherlink.com 1.10,2013-03-16 14:13:00,
2013-03-16 10:28:00,56.2,46.0,29.69,East,85,1.0,3.0,68,0.00,,,0.00,weatherlink.com 1.10,2013-03-16 14:28:00,
2013-03-16 10:43:00,58.6,46.0,29.68,East,90,0.0,4.0,64,0.00,,,0.00,weatherlink.com 1.10,2013-03-16 14:43:00,
2013-03-16 10:58:00,62.3,47.0,29.67,NNW,348,0.0,10.0,58,0.00,,,0.00,weatherlink.com 1.10,2013-03-16 14:58:00,
2013-03-16 11:13:00,65.2,46.0,29.66,SSW,205,3.0,7.0,51,0.00,,,0.00,weatherlink.com 1.10,2013-03-16 15:13:00,
2013-03-16 11:28:00,67.5,46.0,29.66,East,79,0.0,7.0,46,0.00,,,0.00,weatherlink.com 1.10,2013-03-16 15:28:00,
2013-03-16 11:43:00,70.3,45.0,29.65,West,271,0.0,7.0,40,0.00,,,0.00,weatherlink.com 1.10,2013-03-16 15:43:00,
2013-03-16 11:58:00,71.2,44.0,29.64,SW,219,0.0,8.0,38,0.00,,,0.00,weatherlink.com 1.10,2013-03-16 15:58:00,
2013-03-16 12:13:00,71.4,45.0,29.64,West,265,0.0,13.0,39,0.00,,,0.00,weatherlink.com 1.10,2013-03-16 16:13:00,
2013-03-16 12:28:00,72.2,44.0,29.63,West,269,0.0,9.0,37,0.00,,,0.00,weatherlink.com 1.10,2013-03-16 16:28:00,
2013-03-16 12:43:00,72.4,44.0,29.63,WSW,247,3.0,11.0,36,0.00,,,0.00,weatherlink.com 1.10,2013-03-16 16:43:00,
2013-03-16 12:58:00,72.7,44.0,29.63,SSW,205,1.0,7.0,36,0.00,,,0.00,weatherlink.com 1.10,2013-03-16 16:58:00,
2013-03-16 13:13:00,73.6,44.0,29.63,WSW,254,0.0,4.0,35,0.00,,,0.00,weatherlink.com 1.10,2013-03-16 17:13:00,
2013-03-16 13:28:00,73.4,44.0,29.63,SSW,213,1.0,9.0,35,0.00,,,0.00,weatherlink.com 1.10,2013-03-16 17:28:00,
2013-03-16 13:43:00,72.7,43.0,29.61,ENE,58,1.0,8.0,35,0.00,,,0.00,weatherlink.com 1.10,2013-03-16 17:43:00,
2013-03-16 13:58:00,73.6,45.0,29.61,WSW,238,1.0,7.0,36,0.00,,,0.00,weatherlink.com 1.10,2013-03-16 17:58:00,
2013-03-16 14:13:00,73.4,44.0,29.61,SE,139,1.0,7.0,35,0.00,,,0.00,weatherlink.com 1.10,2013-03-16 18:13:00,
2013-03-16 14:28:00,73.8,45.0,29.60,West,276,5.0,13.0,36,0.00,,,0.00,weatherlink.com 1.10,2013-03-16 18:28:00,
2013-03-16 14:44:00,74.8,44.0,29.59,WNW,282,6.0,9.0,33,0.00,,,0.00,weatherlink.com 1.10,2013-03-16 18:44:00,
2013-03-16 14:59:00,74.6,44.0,29.58,South,190,1.0,16.0,34,0.00,,,0.00,weatherlink.com 1.10,2013-03-16 18:59:00,
2013-03-16 15:14:00,74.8,44.0,29.57,WNW,285,6.0,6.0,33,0.00,,,0.00,weatherlink.com 1.10,2013-03-16 19:14:00,
2013-03-16 15:29:00,74.8,45.0,29.56,WSW,250,3.0,13.0,34,0.00,,,0.00,weatherlink.com 1.10,2013-03-16 19:29:00,
2013-03-16 15:44:00,75.3,43.0,29.55,WNW,284,0.0,9.0,32,0.00,,,0.00,weatherlink.com 1.10,2013-03-16 19:44:00,
2013-03-16 15:59:00,75.2,42.0,29.54,WSW,254,1.0,10.0,31,0.00,,,0.00,weatherlink.com 1.10,2013-03-16 19:59:00,
2013-03-16 16:14:00,75.2,42.0,29.53,SSE,167,1.0,12.0,31,0.00,,,0.00,weatherlink.com 1.10,2013-03-16 20:14:00,
2013-03-16 16:29:00,74.8,43.0,29.53,WSW,248,5.0,14.0,32,0.00,,,0.00,weatherlink.com 1.10,2013-03-16 20:29:00,
2013-03-16 16:44:00,74.5,42.0,29.52,WSW,256,1.0,10.0,31,0.00,,,0.00,weatherlink.com 1.10,2013-03-16 20:44:00,
2013-03-16 16:59:00,74.5,43.0,29.52,West,279,2.0,18.0,32,0.00,,,0.00,weatherlink.com 1.10,2013-03-16 20:59:00,
2013-03-16 17:14:00,73.9,44.0,29.52,SW,216,9.0,11.0,34,0.00,,,0.00,weatherlink.com 1.10,2013-03-16 21:14:00,
2013-03-16 17:29:00,73.1,48.0,29.53,SW,220,1.0,15.0,41,0.00,,,0.00,weatherlink.com 1.10,2013-03-16 21:29:00,
2013-03-16 17:44:00,66.7,52.0,29.58,South,173,14.0,15.0,59,0.04,,,0.04,weatherlink.com 1.10,2013-03-16 21:44:00,
2013-03-16 17:59:00,64.6,51.0,29.61,WSW,247,5.0,8.0,61,0.04,,,0.04,weatherlink.com 1.10,2013-03-16 21:59:00,
2013-03-16 18:14:00,64.1,50.0,29.62,West,267,0.0,4.0,60,0.04,,,0.04,weatherlink.com 1.10,2013-03-16 22:14:00,
2013-03-16 18:29:00,64.7,48.0,29.61,West,268,1.0,9.0,56,0.04,,,0.04,weatherlink.com 1.10,2013-03-16 22:29:00,
2013-03-16 18:44:00,65.2,49.0,29.62,West,269,1.0,4.0,56,0.00,,,0.04,weatherlink.com 1.10,2013-03-16 22:44:00,
2013-03-16 18:59:00,65.1,49.0,29.62,West,259,3.0,8.0,56,0.00,,,0.04,weatherlink.com 1.10,2013-03-16 22:59:00,
2013-03-16 19:14:00,65.1,49.0,29.63,West,269,3.0,8.0,56,0.00,,,0.04,weatherlink.com 1.10,2013-03-16 23:14:00,
2013-03-16 19:29:00,64.4,48.0,29.63,SW,219,0.0,6.0,56,0.00,,,0.04,weatherlink.com 1.10,2013-03-16 23:29:00,
2013-03-16 19:44:00,64.2,48.0,29.64,SW,234,4.0,8.0,57,0.00,,,0.04,weatherlink.com 1.10,2013-03-16 23:44:00,
2013-03-16 19:59:00,63.9,49.0,29.65,SW,231,0.0,8.0,58,0.00,,,0.04,weatherlink.com 1.10,2013-03-16 23:59:00,
2013-03-16 20:14:00,63.6,49.0,29.65,SW,232,0.0,10.0,59,0.00,,,0.04,weatherlink.com 1.10,2013-03-17 00:14:00,
2013-03-16 20:29:00,63.8,49.0,29.66,SW,221,3.0,13.0,58,0.00,,,0.04,weatherlink.com 1.10,2013-03-17 00:29:00,
2013-03-16 20:44:00,63.8,49.0,29.66,SW,228,1.0,19.0,58,0.00,,,0.04,weatherlink.com 1.10,2013-03-17 00:44:00,
2013-03-16 20:59:00,63.6,49.0,29.68,WSW,245,4.0,11.0,59,0.00,,,0.04,weatherlink.com 1.10,2013-03-17 00:59:00,
2013-03-16 21:14:00,63.3,49.0,29.68,WNW,289,2.0,13.0,59,0.00,,,0.04,weatherlink.com 1.10,2013-03-17 01:14:00,
2013-03-16 21:29:00,63.3,48.0,29.69,WSW,255,1.0,8.0,58,0.00,,,0.04,weatherlink.com 1.10,2013-03-17 01:29:00,
2013-03-16 21:44:00,63.0,48.0,29.69,SW,217,2.0,7.0,59,0.00,,,0.04,weatherlink.com 1.10,2013-03-17 01:44:00,
2013-03-16 21:59:00,63.0,48.0,29.71,WNW,287,2.0,7.0,58,0.00,,,0.04,weatherlink.com 1.10,2013-03-17 01:59:00,
2013-03-16 22:14:00,63.0,48.0,29.71,SW,222,7.0,12.0,58,0.00,,,0.04,weatherlink.com 1.10,2013-03-17 02:14:00,
2013-03-16 22:29:00,62.5,48.0,29.72,SW,215,2.0,8.0,59,0.00,,,0.04,weatherlink.com 1.10,2013-03-17 02:29:00,
2013-03-16 22:44:00,62.0,48.0,29.73,SW,230,0.0,5.0,60,0.00,,,0.04,weatherlink.com 1.10,2013-03-17 02:44:00,
2013-03-16 22:59:00,61.2,48.0,29.74,SSW,207,0.0,1.0,62,0.00,,,0.04,weatherlink.com 1.10,2013-03-17 02:59:00,
2013-03-16 23:14:00,59.8,48.0,29.74,SSW,207,0.0,1.0,65,0.00,,,0.04,weatherlink.com 1.10,2013-03-17 03:14:00,
2013-03-16 23:29:00,58.9,48.0,29.75,SSW,211,0.0,1.0,67,0.00,,,0.04,weatherlink.com 1.10,2013-03-17 03:29:00,
2013-03-16 23:44:00,57.9,48.0,29.75,SSW,211,0.0,1.0,69,0.00,,,0.04,weatherlink.com 1.10,2013-03-17 03:44:00,
2013-03-16 23:59:00,57.5,48.0,29.75,SSW,213,0.0,2.0,70,0.00,,,0.04,weatherlink.com 1.10,2013-03-17 03:59:00,